sensor_id;sensor_type;location;lat;lon;timestamp;temperature;humidity
58096;DHT22;43908;53.038;6.666;2022-07-18T00:00:07;15.60;99.90
58096;DHT22;43908;53.038;6.666;2022-07-18T00:02:33;15.50;99.90
58096;DHT22;43908;53.038;6.666;2022-07-18T00:04:59;15.50;99.90
58096;DHT22;43908;53.038;6.666;2022-07-18T00:07:25;15.40;99.90
58096;DHT22;43908;53.038;6.666;2022-07-18T00:09:50;15.40;99.90
58096;DHT22;43908;53.038;6.666;2022-07-18T00:12:16;15.40;99.90
58096;DHT22;43908;53.038;6.666;2022-07-18T00:14:42;15.30;99.90
58096;DHT22;43908;53.038;6.666;2022-07-18T00:17:08;15.30;99.90
58096;DHT22;43908;53.038;6.666;2022-07-18T00:19:35;15.30;99.90
58096;DHT22;43908;53.038;6.666;2022-07-18T00:22:00;15.20;99.90
58096;DHT22;43908;53.038;6.666;2022-07-18T00:24:27;15.20;99.90
58096;DHT22;43908;53.038;6.666;2022-07-18T00:26:53;15.10;99.90
58096;DHT22;43908;53.038;6.666;2022-07-18T00:29:19;15.10;99.90
58096;DHT22;43908;53.038;6.666;2022-07-18T00:31:45;15.10;99.90
58096;DHT22;43908;53.038;6.666;2022-07-18T00:34:10;15.10;99.90
58096;DHT22;43908;53.038;6.666;2022-07-18T00:36:36;15.00;99.90
58096;DHT22;43908;53.038;6.666;2022-07-18T00:39:02;15.00;99.90
58096;DHT22;43908;53.038;6.666;2022-07-18T00:41:28;15.00;99.90
58096;DHT22;43908;53.038;6.666;2022-07-18T00:43:54;15.00;99.90
58096;DHT22;43908;53.038;6.666;2022-07-18T00:46:24;14.90;99.90
58096;DHT22;43908;53.038;6.666;2022-07-18T00:48:50;14.90;99.90
58096;DHT22;43908;53.038;6.666;2022-07-18T00:51:16;14.90;99.90
58096;DHT22;43908;53.038;6.666;2022-07-18T00:53:43;14.90;99.90
58096;DHT22;43908;53.038;6.666;2022-07-18T00:56:09;14.90;99.90
58096;DHT22;43908;53.038;6.666;2022-07-18T00:58:35;14.90;99.90
58096;DHT22;43908;53.038;6.666;2022-07-18T01:01:02;14.80;99.90
58096;DHT22;43908;53.038;6.666;2022-07-18T01:03:46;14.80;99.90
58096;DHT22;43908;53.038;6.666;2022-07-18T01:06:12;14.80;99.90
58096;DHT22;43908;53.038;6.666;2022-07-18T01:08:38;14.80;99.90
58096;DHT22;43908;53.038;6.666;2022-07-18T01:11:07;14.80;99.90
58096;DHT22;43908;53.038;6.666;2022-07-18T01:13:32;14.80;99.90
58096;DHT22;43908;53.038;6.666;2022-07-18T01:15:58;14.70;99.90
58096;DHT22;43908;53.038;6.666;2022-07-18T01:18:24;14.80;99.90
58096;DHT22;43908;53.038;6.666;2022-07-18T01:20:50;14.80;99.90
58096;DHT22;43908;53.038;6.666;2022-07-18T01:23:15;14.70;99.90
58096;DHT22;43908;53.038;6.666;2022-07-18T01:25:41;14.70;99.90
58096;DHT22;43908;53.038;6.666;2022-07-18T01:28:06;14.70;99.90
58096;DHT22;43908;53.038;6.666;2022-07-18T01:30:32;14.70;99.90
58096;DHT22;43908;53.038;6.666;2022-07-18T01:33:00;14.70;99.90
58096;DHT22;43908;53.038;6.666;2022-07-18T01:35:27;14.60;99.90
58096;DHT22;43908;53.038;6.666;2022-07-18T01:37:55;14.60;99.90
58096;DHT22;43908;53.038;6.666;2022-07-18T01:40:21;14.60;99.90
58096;DHT22;43908;53.038;6.666;2022-07-18T01:42:47;14.60;99.90
58096;DHT22;43908;53.038;6.666;2022-07-18T01:45:13;14.60;99.90
58096;DHT22;43908;53.038;6.666;2022-07-18T01:47:39;14.50;99.90
58096;DHT22;43908;53.038;6.666;2022-07-18T01:50:05;14.50;99.90
58096;DHT22;43908;53.038;6.666;2022-07-18T01:52:31;14.50;99.90
58096;DHT22;43908;53.038;6.666;2022-07-18T01:54:57;14.40;99.90
58096;DHT22;43908;53.038;6.666;2022-07-18T01:57:22;14.40;99.90
58096;DHT22;43908;53.038;6.666;2022-07-18T01:59:49;14.40;99.90
58096;DHT22;43908;53.038;6.666;2022-07-18T02:02:14;14.40;99.90
58096;DHT22;43908;53.038;6.666;2022-07-18T02:04:40;14.40;99.90
58096;DHT22;43908;53.038;6.666;2022-07-18T02:07:25;14.40;99.90
58096;DHT22;43908;53.038;6.666;2022-07-18T02:09:50;14.40;99.90
58096;DHT22;43908;53.038;6.666;2022-07-18T02:12:16;14.40;99.90
58096;DHT22;43908;53.038;6.666;2022-07-18T02:14:42;14.40;99.90
58096;DHT22;43908;53.038;6.666;2022-07-18T02:17:07;14.30;99.90
58096;DHT22;43908;53.038;6.666;2022-07-18T02:19:33;14.30;99.90
58096;DHT22;43908;53.038;6.666;2022-07-18T02:21:58;14.30;99.90
58096;DHT22;43908;53.038;6.666;2022-07-18T02:24:24;14.30;99.90
58096;DHT22;43908;53.038;6.666;2022-07-18T02:26:49;14.30;99.90
58096;DHT22;43908;53.038;6.666;2022-07-18T02:29:15;14.30;99.90
58096;DHT22;43908;53.038;6.666;2022-07-18T02:31:41;14.30;99.90
58096;DHT22;43908;53.038;6.666;2022-07-18T02:34:06;14.20;99.90
58096;DHT22;43908;53.038;6.666;2022-07-18T02:36:37;14.20;99.90
58096;DHT22;43908;53.038;6.666;2022-07-18T02:39:03;14.20;99.90
58096;DHT22;43908;53.038;6.666;2022-07-18T02:41:29;14.20;99.90
58096;DHT22;43908;53.038;6.666;2022-07-18T02:43:55;14.20;99.90
58096;DHT22;43908;53.038;6.666;2022-07-18T02:46:20;14.20;99.90
58096;DHT22;43908;53.038;6.666;2022-07-18T02:48:46;14.10;99.90
58096;DHT22;43908;53.038;6.666;2022-07-18T02:51:11;14.00;99.90
58096;DHT22;43908;53.038;6.666;2022-07-18T02:53:37;13.90;99.90
58096;DHT22;43908;53.038;6.666;2022-07-18T02:56:02;13.90;99.90
58096;DHT22;43908;53.038;6.666;2022-07-18T02:58:28;14.00;99.90
58096;DHT22;43908;53.038;6.666;2022-07-18T03:00:54;14.00;99.90
58096;DHT22;43908;53.038;6.666;2022-07-18T03:03:19;14.00;99.90
58096;DHT22;43908;53.038;6.666;2022-07-18T03:05:45;14.10;99.90
58096;DHT22;43908;53.038;6.666;2022-07-18T03:08:10;14.00;99.90
58096;DHT22;43908;53.038;6.666;2022-07-18T03:10:36;14.00;99.90
58096;DHT22;43908;53.038;6.666;2022-07-18T03:13:01;14.00;99.90
58096;DHT22;43908;53.038;6.666;2022-07-18T03:15:27;14.00;99.90
58096;DHT22;43908;53.038;6.666;2022-07-18T03:17:52;14.00;99.90
58096;DHT22;43908;53.038;6.666;2022-07-18T03:20:18;14.00;99.90
58096;DHT22;43908;53.038;6.666;2022-07-18T03:22:44;14.00;99.90
58096;DHT22;43908;53.038;6.666;2022-07-18T03:25:09;14.00;99.90
58096;DHT22;43908;53.038;6.666;2022-07-18T03:27:35;14.00;99.90
58096;DHT22;43908;53.038;6.666;2022-07-18T03:30:00;14.10;99.90
58096;DHT22;43908;53.038;6.666;2022-07-18T03:32:26;14.10;99.90
58096;DHT22;43908;53.038;6.666;2022-07-18T03:34:52;14.10;99.90
58096;DHT22;43908;53.038;6.666;2022-07-18T03:37:17;14.20;99.90
58096;DHT22;43908;53.038;6.666;2022-07-18T03:39:43;14.20;99.90
58096;DHT22;43908;53.038;6.666;2022-07-18T03:42:08;14.20;99.90
58096;DHT22;43908;53.038;6.666;2022-07-18T03:44:34;14.20;99.90
58096;DHT22;43908;53.038;6.666;2022-07-18T03:46:59;14.20;99.90
58096;DHT22;43908;53.038;6.666;2022-07-18T03:49:25;14.20;99.90
58096;DHT22;43908;53.038;6.666;2022-07-18T03:51:50;14.20;99.90
58096;DHT22;43908;53.038;6.666;2022-07-18T03:54:16;14.20;99.90
58096;DHT22;43908;53.038;6.666;2022-07-18T03:56:42;14.20;99.90
58096;DHT22;43908;53.038;6.666;2022-07-18T03:59:07;14.20;99.90
58096;DHT22;43908;53.038;6.666;2022-07-18T04:01:33;14.20;99.90
58096;DHT22;43908;53.038;6.666;2022-07-18T04:03:58;14.20;99.90
58096;DHT22;43908;53.038;6.666;2022-07-18T04:06:24;14.30;99.90
58096;DHT22;43908;53.038;6.666;2022-07-18T04:08:49;14.30;99.90
58096;DHT22;43908;53.038;6.666;2022-07-18T04:11:15;14.30;99.90
58096;DHT22;43908;53.038;6.666;2022-07-18T04:13:41;14.30;99.90
58096;DHT22;43908;53.038;6.666;2022-07-18T04:16:06;14.40;99.90
58096;DHT22;43908;53.038;6.666;2022-07-18T04:18:32;14.30;99.90
58096;DHT22;43908;53.038;6.666;2022-07-18T04:20:58;14.30;99.90
58096;DHT22;43908;53.038;6.666;2022-07-18T04:23:23;14.30;99.90
58096;DHT22;43908;53.038;6.666;2022-07-18T04:25:49;14.40;99.90
58096;DHT22;43908;53.038;6.666;2022-07-18T04:28:14;14.40;99.90
58096;DHT22;43908;53.038;6.666;2022-07-18T04:30:41;14.50;99.90
58096;DHT22;43908;53.038;6.666;2022-07-18T04:33:08;14.50;99.90
58096;DHT22;43908;53.038;6.666;2022-07-18T04:35:35;14.60;99.90
58096;DHT22;43908;53.038;6.666;2022-07-18T04:38:02;14.70;99.90
58096;DHT22;43908;53.038;6.666;2022-07-18T04:40:28;14.80;99.90
58096;DHT22;43908;53.038;6.666;2022-07-18T04:42:53;14.90;99.90
58096;DHT22;43908;53.038;6.666;2022-07-18T04:45:19;14.90;99.90
58096;DHT22;43908;53.038;6.666;2022-07-18T04:47:51;15.00;99.90
58096;DHT22;43908;53.038;6.666;2022-07-18T04:50:17;15.10;99.90
58096;DHT22;43908;53.038;6.666;2022-07-18T04:52:44;15.20;99.90
58096;DHT22;43908;53.038;6.666;2022-07-18T04:55:12;15.30;99.90
58096;DHT22;43908;53.038;6.666;2022-07-18T04:57:38;15.40;99.90
58096;DHT22;43908;53.038;6.666;2022-07-18T05:00:09;15.50;99.90
58096;DHT22;43908;53.038;6.666;2022-07-18T05:02:39;15.70;99.90
58096;DHT22;43908;53.038;6.666;2022-07-18T05:05:05;15.80;99.90
58096;DHT22;43908;53.038;6.666;2022-07-18T05:07:30;16.00;99.90
58096;DHT22;43908;53.038;6.666;2022-07-18T05:09:56;16.10;99.90
58096;DHT22;43908;53.038;6.666;2022-07-18T05:12:22;16.20;99.90
58096;DHT22;43908;53.038;6.666;2022-07-18T05:14:49;16.40;99.90
58096;DHT22;43908;53.038;6.666;2022-07-18T05:17:15;16.50;99.90
58096;DHT22;43908;53.038;6.666;2022-07-18T05:19:40;16.60;99.90
58096;DHT22;43908;53.038;6.666;2022-07-18T05:22:06;16.70;99.90
58096;DHT22;43908;53.038;6.666;2022-07-18T05:24:31;16.80;99.90
58096;DHT22;43908;53.038;6.666;2022-07-18T05:26:57;16.90;99.90
58096;DHT22;43908;53.038;6.666;2022-07-18T05:29:22;16.90;99.90
58096;DHT22;43908;53.038;6.666;2022-07-18T05:31:48;17.00;99.90
58096;DHT22;43908;53.038;6.666;2022-07-18T05:34:14;17.10;99.90
58096;DHT22;43908;53.038;6.666;2022-07-18T05:36:39;17.20;99.90
58096;DHT22;43908;53.038;6.666;2022-07-18T05:39:05;17.30;99.90
58096;DHT22;43908;53.038;6.666;2022-07-18T05:41:30;17.40;99.90
58096;DHT22;43908;53.038;6.666;2022-07-18T05:43:56;17.60;99.90
58096;DHT22;43908;53.038;6.666;2022-07-18T05:46:22;17.70;99.90
58096;DHT22;43908;53.038;6.666;2022-07-18T05:48:47;17.80;99.90
58096;DHT22;43908;53.038;6.666;2022-07-18T05:51:13;18.00;99.90
58096;DHT22;43908;53.038;6.666;2022-07-18T05:53:39;18.00;99.90
58096;DHT22;43908;53.038;6.666;2022-07-18T05:56:05;18.20;99.90
58096;DHT22;43908;53.038;6.666;2022-07-18T05:58:31;18.30;99.90
58096;DHT22;43908;53.038;6.666;2022-07-18T06:00:56;18.40;99.90
58096;DHT22;43908;53.038;6.666;2022-07-18T06:03:22;18.50;99.90
58096;DHT22;43908;53.038;6.666;2022-07-18T06:05:47;18.60;99.90
58096;DHT22;43908;53.038;6.666;2022-07-18T06:08:13;18.70;99.90
58096;DHT22;43908;53.038;6.666;2022-07-18T06:10:38;18.70;99.90
58096;DHT22;43908;53.038;6.666;2022-07-18T06:13:04;18.80;99.90
58096;DHT22;43908;53.038;6.666;2022-07-18T06:15:30;18.90;99.90
58096;DHT22;43908;53.038;6.666;2022-07-18T06:17:55;19.00;99.90
58096;DHT22;43908;53.038;6.666;2022-07-18T06:20:21;19.20;99.90
58096;DHT22;43908;53.038;6.666;2022-07-18T06:22:46;19.40;99.90
58096;DHT22;43908;53.038;6.666;2022-07-18T06:25:12;19.60;99.90
58096;DHT22;43908;53.038;6.666;2022-07-18T06:27:38;19.90;99.90
58096;DHT22;43908;53.038;6.666;2022-07-18T06:30:04;20.10;99.90
58096;DHT22;43908;53.038;6.666;2022-07-18T06:32:31;20.50;99.90
58096;DHT22;43908;53.038;6.666;2022-07-18T06:34:56;21.10;99.90
58096;DHT22;43908;53.038;6.666;2022-07-18T06:37:22;21.30;99.90
58096;DHT22;43908;53.038;6.666;2022-07-18T06:39:48;21.80;99.90
58096;DHT22;43908;53.038;6.666;2022-07-18T06:42:13;22.90;99.20
58096;DHT22;43908;53.038;6.666;2022-07-18T06:47:05;25.30;95.80
58096;DHT22;43908;53.038;6.666;2022-07-18T06:49:30;26.00;96.40
58096;DHT22;43908;53.038;6.666;2022-07-18T06:51:56;26.60;92.80
58096;DHT22;43908;53.038;6.666;2022-07-18T06:54:22;26.50;92.40
58096;DHT22;43908;53.038;6.666;2022-07-18T06:56:53;26.00;91.30
58096;DHT22;43908;53.038;6.666;2022-07-18T06:59:19;26.40;91.30
58096;DHT22;43908;53.038;6.666;2022-07-18T07:01:45;27.70;84.10
58096;DHT22;43908;53.038;6.666;2022-07-18T07:04:10;27.90;89.10
58096;DHT22;43908;53.038;6.666;2022-07-18T07:06:36;28.60;87.50
58096;DHT22;43908;53.038;6.666;2022-07-18T07:09:04;29.20;87.10
58096;DHT22;43908;53.038;6.666;2022-07-18T07:11:29;29.80;83.80
58096;DHT22;43908;53.038;6.666;2022-07-18T07:16:21;30.50;76.10
58096;DHT22;43908;53.038;6.666;2022-07-18T07:18:46;30.70;69.00
58096;DHT22;43908;53.038;6.666;2022-07-18T07:23:38;31.70;69.60
58096;DHT22;43908;53.038;6.666;2022-07-18T07:26:06;32.20;67.90
58096;DHT22;43908;53.038;6.666;2022-07-18T07:28:31;32.40;69.90
58096;DHT22;43908;53.038;6.666;2022-07-18T07:30:57;32.40;70.10
58096;DHT22;43908;53.038;6.666;2022-07-18T07:33:22;32.30;66.60
58096;DHT22;43908;53.038;6.666;2022-07-18T07:35:48;32.50;68.20
58096;DHT22;43908;53.038;6.666;2022-07-18T07:38:14;32.40;66.70
58096;DHT22;43908;53.038;6.666;2022-07-18T07:40:43;32.60;61.70
58096;DHT22;43908;53.038;6.666;2022-07-18T07:43:13;32.40;64.40
58096;DHT22;43908;53.038;6.666;2022-07-18T07:45:39;32.70;65.00
58096;DHT22;43908;53.038;6.666;2022-07-18T07:50:31;31.70;64.20
58096;DHT22;43908;53.038;6.666;2022-07-18T07:52:58;31.30;64.50
58096;DHT22;43908;53.038;6.666;2022-07-18T07:55:25;30.70;63.90
58096;DHT22;43908;53.038;6.666;2022-07-18T07:57:51;30.20;63.10
58096;DHT22;43908;53.038;6.666;2022-07-18T08:00:16;29.80;65.30
58096;DHT22;43908;53.038;6.666;2022-07-18T08:03:00;29.90;65.50
58096;DHT22;43908;53.038;6.666;2022-07-18T08:05:30;30.50;66.00
58096;DHT22;43908;53.038;6.666;2022-07-18T08:07:57;31.00;66.50
58096;DHT22;43908;53.038;6.666;2022-07-18T08:10:24;31.20;64.00
58096;DHT22;43908;53.038;6.666;2022-07-18T08:12:49;31.40;64.70
58096;DHT22;43908;53.038;6.666;2022-07-18T08:15:15;31.10;61.10
58096;DHT22;43908;53.038;6.666;2022-07-18T08:17:40;30.70;63.20
58096;DHT22;43908;53.038;6.666;2022-07-18T08:20:07;30.00;61.80
58096;DHT22;43908;53.038;6.666;2022-07-18T08:22:33;29.40;62.70
58096;DHT22;43908;53.038;6.666;2022-07-18T08:24:58;29.20;63.10
58096;DHT22;43908;53.038;6.666;2022-07-18T08:27:24;29.00;64.20
58096;DHT22;43908;53.038;6.666;2022-07-18T08:29:49;28.60;64.30
58096;DHT22;43908;53.038;6.666;2022-07-18T08:32:15;28.30;64.00
58096;DHT22;43908;53.038;6.666;2022-07-18T08:34:41;28.20;65.60
58096;DHT22;43908;53.038;6.666;2022-07-18T08:37:06;28.10;65.80
58096;DHT22;43908;53.038;6.666;2022-07-18T08:39:32;28.00;64.40
58096;DHT22;43908;53.038;6.666;2022-07-18T08:42:00;28.00;64.70
58096;DHT22;43908;53.038;6.666;2022-07-18T08:44:28;28.00;63.70
58096;DHT22;43908;53.038;6.666;2022-07-18T08:46:57;28.10;63.80
58096;DHT22;43908;53.038;6.666;2022-07-18T08:49:23;28.10;63.20
58096;DHT22;43908;53.038;6.666;2022-07-18T08:51:49;28.00;64.60
58096;DHT22;43908;53.038;6.666;2022-07-18T08:54:16;27.90;63.70
58096;DHT22;43908;53.038;6.666;2022-07-18T08:56:41;27.90;63.40
58096;DHT22;43908;53.038;6.666;2022-07-18T08:59:07;28.00;64.60
58096;DHT22;43908;53.038;6.666;2022-07-18T09:01:33;28.00;63.10
58096;DHT22;43908;53.038;6.666;2022-07-18T09:03:59;27.90;64.70
58096;DHT22;43908;53.038;6.666;2022-07-18T09:06:48;27.90;65.20
58096;DHT22;43908;53.038;6.666;2022-07-18T09:09:15;28.00;66.10
58096;DHT22;43908;53.038;6.666;2022-07-18T09:11:53;28.00;66.50
58096;DHT22;43908;53.038;6.666;2022-07-18T09:14:34;27.90;67.00
58096;DHT22;43908;53.038;6.666;2022-07-18T09:17:15;27.90;66.50
58096;DHT22;43908;53.038;6.666;2022-07-18T09:19:43;27.80;66.10
58096;DHT22;43908;53.038;6.666;2022-07-18T09:22:22;27.70;65.60
58096;DHT22;43908;53.038;6.666;2022-07-18T09:25:06;27.70;64.90
58096;DHT22;43908;53.038;6.666;2022-07-18T09:27:50;27.80;66.40
58096;DHT22;43908;53.038;6.666;2022-07-18T09:30:25;27.80;64.20
58096;DHT22;43908;53.038;6.666;2022-07-18T09:35:51;28.00;64.70
58096;DHT22;43908;53.038;6.666;2022-07-18T09:38:18;28.10;64.30
58096;DHT22;43908;53.038;6.666;2022-07-18T09:40:53;28.00;64.10
58096;DHT22;43908;53.038;6.666;2022-07-18T09:43:21;28.00;63.90
58096;DHT22;43908;53.038;6.666;2022-07-18T09:45:49;28.10;65.40
58096;DHT22;43908;53.038;6.666;2022-07-18T09:48:20;28.20;64.30
58096;DHT22;43908;53.038;6.666;2022-07-18T09:51:04;28.20;63.30
58096;DHT22;43908;53.038;6.666;2022-07-18T09:58:31;28.50;63.00
58096;DHT22;43908;53.038;6.666;2022-07-18T10:00:59;28.50;63.00
58096;DHT22;43908;53.038;6.666;2022-07-18T10:03:25;28.50;62.20
58096;DHT22;43908;53.038;6.666;2022-07-18T10:05:53;28.40;62.70
58096;DHT22;43908;53.038;6.666;2022-07-18T10:08:22;28.60;63.80
58096;DHT22;43908;53.038;6.666;2022-07-18T10:10:50;28.70;64.70
58096;DHT22;43908;53.038;6.666;2022-07-18T10:13:17;28.70;65.20
58096;DHT22;43908;53.038;6.666;2022-07-18T10:15:46;28.90;64.50
58096;DHT22;43908;53.038;6.666;2022-07-18T10:18:14;28.90;62.90
58096;DHT22;43908;53.038;6.666;2022-07-18T10:23:40;29.00;61.30
58096;DHT22;43908;53.038;6.666;2022-07-18T10:31:39;29.10;60.80
58096;DHT22;43908;53.038;6.666;2022-07-18T10:36:38;29.30;62.20
58096;DHT22;43908;53.038;6.666;2022-07-18T10:47:14;29.20;62.10
58096;DHT22;43908;53.038;6.666;2022-07-18T11:16:23;29.60;58.80
58096;DHT22;43908;53.038;6.666;2022-07-18T11:21:29;29.70;59.00
58096;DHT22;43908;53.038;6.666;2022-07-18T11:24:06;29.70;56.10
58096;DHT22;43908;53.038;6.666;2022-07-18T11:26:34;29.80;53.70
58096;DHT22;43908;53.038;6.666;2022-07-18T11:29:11;29.80;56.90
58096;DHT22;43908;53.038;6.666;2022-07-18T11:34:15;29.70;55.30
58096;DHT22;43908;53.038;6.666;2022-07-18T11:36:42;29.70;57.50
58096;DHT22;43908;53.038;6.666;2022-07-18T11:39:08;29.60;57.20
58096;DHT22;43908;53.038;6.666;2022-07-18T11:41:39;29.60;57.00
58096;DHT22;43908;53.038;6.666;2022-07-18T11:44:15;29.70;56.40
58096;DHT22;43908;53.038;6.666;2022-07-18T11:46:42;29.80;56.20
58096;DHT22;43908;53.038;6.666;2022-07-18T11:49:08;29.90;58.00
58096;DHT22;43908;53.038;6.666;2022-07-18T11:51:39;30.00;58.60
58096;DHT22;43908;53.038;6.666;2022-07-18T11:54:05;30.00;58.00
58096;DHT22;43908;53.038;6.666;2022-07-18T11:56:31;30.00;55.30
58096;DHT22;43908;53.038;6.666;2022-07-18T11:58:57;30.00;54.50
58096;DHT22;43908;53.038;6.666;2022-07-18T12:01:33;30.10;55.60
58096;DHT22;43908;53.038;6.666;2022-07-18T12:03:59;30.10;52.80
58096;DHT22;43908;53.038;6.666;2022-07-18T12:06:25;30.20;56.70
58096;DHT22;43908;53.038;6.666;2022-07-18T12:08:57;30.10;53.20
58096;DHT22;43908;53.038;6.666;2022-07-18T12:11:35;30.00;53.00
58096;DHT22;43908;53.038;6.666;2022-07-18T12:14:14;30.10;55.80
58096;DHT22;43908;53.038;6.666;2022-07-18T12:16:48;30.20;57.00
58096;DHT22;43908;53.038;6.666;2022-07-18T12:19:17;30.10;56.90
58096;DHT22;43908;53.038;6.666;2022-07-18T12:22:11;30.20;53.90
58096;DHT22;43908;53.038;6.666;2022-07-18T12:30:12;29.80;55.10
58096;DHT22;43908;53.038;6.666;2022-07-18T12:32:54;29.80;56.50
58096;DHT22;43908;53.038;6.666;2022-07-18T12:35:31;29.80;57.80
58096;DHT22;43908;53.038;6.666;2022-07-18T12:37:59;29.60;56.30
58096;DHT22;43908;53.038;6.666;2022-07-18T12:40:37;29.20;54.70
58096;DHT22;43908;53.038;6.666;2022-07-18T12:43:10;29.20;57.30
58096;DHT22;43908;53.038;6.666;2022-07-18T12:45:36;29.10;58.10
58096;DHT22;43908;53.038;6.666;2022-07-18T12:48:03;28.90;59.30
58096;DHT22;43908;53.038;6.666;2022-07-18T12:50:29;29.00;57.60
58096;DHT22;43908;53.038;6.666;2022-07-18T12:52:54;29.00;58.30
58096;DHT22;43908;53.038;6.666;2022-07-18T12:55:20;29.10;56.90
58096;DHT22;43908;53.038;6.666;2022-07-18T12:57:48;29.20;58.20
58096;DHT22;43908;53.038;6.666;2022-07-18T13:00:14;29.10;58.40
58096;DHT22;43908;53.038;6.666;2022-07-18T13:02:41;29.10;56.00
58096;DHT22;43908;53.038;6.666;2022-07-18T13:05:07;29.10;60.70
58096;DHT22;43908;53.038;6.666;2022-07-18T13:07:33;28.90;57.90
58096;DHT22;43908;53.038;6.666;2022-07-18T13:09:58;28.90;59.40
58096;DHT22;43908;53.038;6.666;2022-07-18T13:12:24;28.90;60.60
58096;DHT22;43908;53.038;6.666;2022-07-18T13:14:49;28.90;57.80
58096;DHT22;43908;53.038;6.666;2022-07-18T13:17:15;28.90;57.20
58096;DHT22;43908;53.038;6.666;2022-07-18T13:19:40;29.00;54.70
58096;DHT22;43908;53.038;6.666;2022-07-18T13:22:06;29.10;56.30
58096;DHT22;43908;53.038;6.666;2022-07-18T13:24:32;29.20;50.80
58096;DHT22;43908;53.038;6.666;2022-07-18T13:26:57;29.50;59.10
58096;DHT22;43908;53.038;6.666;2022-07-18T13:29:23;29.50;57.60
58096;DHT22;43908;53.038;6.666;2022-07-18T13:31:49;29.70;55.10
58096;DHT22;43908;53.038;6.666;2022-07-18T13:34:16;29.90;55.70
58096;DHT22;43908;53.038;6.666;2022-07-18T13:36:42;30.00;56.60
58096;DHT22;43908;53.038;6.666;2022-07-18T13:39:08;30.10;55.90
58096;DHT22;43908;53.038;6.666;2022-07-18T13:41:33;29.90;52.30
58096;DHT22;43908;53.038;6.666;2022-07-18T13:43:59;29.80;54.90
58096;DHT22;43908;53.038;6.666;2022-07-18T13:46:25;29.60;53.00
58096;DHT22;43908;53.038;6.666;2022-07-18T13:48:50;29.50;53.60
58096;DHT22;43908;53.038;6.666;2022-07-18T13:51:16;29.60;54.70
58096;DHT22;43908;53.038;6.666;2022-07-18T13:53:42;29.80;55.60
58096;DHT22;43908;53.038;6.666;2022-07-18T13:56:08;29.80;53.90
58096;DHT22;43908;53.038;6.666;2022-07-18T13:58:33;29.80;53.70
58096;DHT22;43908;53.038;6.666;2022-07-18T14:01:00;29.80;55.10
58096;DHT22;43908;53.038;6.666;2022-07-18T14:03:25;29.90;54.10
58096;DHT22;43908;53.038;6.666;2022-07-18T14:05:51;30.00;53.20
58096;DHT22;43908;53.038;6.666;2022-07-18T14:08:17;30.20;54.50
58096;DHT22;43908;53.038;6.666;2022-07-18T14:10:42;30.40;54.70
58096;DHT22;43908;53.038;6.666;2022-07-18T14:13:09;30.70;54.40
58096;DHT22;43908;53.038;6.666;2022-07-18T14:15:35;30.80;53.10
58096;DHT22;43908;53.038;6.666;2022-07-18T14:18:00;31.00;53.70
58096;DHT22;43908;53.038;6.666;2022-07-18T14:20:27;31.10;51.60
58096;DHT22;43908;53.038;6.666;2022-07-18T14:22:52;31.20;52.60
58096;DHT22;43908;53.038;6.666;2022-07-18T14:25:18;31.20;52.00
58096;DHT22;43908;53.038;6.666;2022-07-18T14:27:44;31.10;52.10
58096;DHT22;43908;53.038;6.666;2022-07-18T14:30:13;31.10;52.50
58096;DHT22;43908;53.038;6.666;2022-07-18T14:32:39;31.00;51.80
58096;DHT22;43908;53.038;6.666;2022-07-18T14:35:06;30.80;53.10
58096;DHT22;43908;53.038;6.666;2022-07-18T14:37:32;30.70;52.30
58096;DHT22;43908;53.038;6.666;2022-07-18T14:39:57;30.60;52.90
58096;DHT22;43908;53.038;6.666;2022-07-18T14:42:24;30.70;53.40
58096;DHT22;43908;53.038;6.666;2022-07-18T14:44:50;30.70;54.10
58096;DHT22;43908;53.038;6.666;2022-07-18T14:47:16;31.00;54.60
58096;DHT22;43908;53.038;6.666;2022-07-18T14:49:42;31.20;55.70
58096;DHT22;43908;53.038;6.666;2022-07-18T14:52:07;31.30;54.60
58096;DHT22;43908;53.038;6.666;2022-07-18T14:54:33;31.60;54.80
58096;DHT22;43908;53.038;6.666;2022-07-18T14:56:58;31.70;53.90
58096;DHT22;43908;53.038;6.666;2022-07-18T14:59:24;31.70;54.80
58096;DHT22;43908;53.038;6.666;2022-07-18T15:01:50;31.80;55.70
58096;DHT22;43908;53.038;6.666;2022-07-18T15:04:16;31.80;53.90
58096;DHT22;43908;53.038;6.666;2022-07-18T15:06:41;31.80;51.90
58096;DHT22;43908;53.038;6.666;2022-07-18T15:09:08;31.80;51.90
58096;DHT22;43908;53.038;6.666;2022-07-18T15:11:36;32.00;56.10
58096;DHT22;43908;53.038;6.666;2022-07-18T15:16:27;32.20;55.10
58096;DHT22;43908;53.038;6.666;2022-07-18T15:18:53;32.20;55.10
58096;DHT22;43908;53.038;6.666;2022-07-18T15:21:19;32.30;55.70
58096;DHT22;43908;53.038;6.666;2022-07-18T15:23:44;32.40;55.10
58096;DHT22;43908;53.038;6.666;2022-07-18T15:26:10;32.30;54.70
58096;DHT22;43908;53.038;6.666;2022-07-18T15:28:36;32.20;54.40
58096;DHT22;43908;53.038;6.666;2022-07-18T15:31:01;32.20;53.10
58096;DHT22;43908;53.038;6.666;2022-07-18T15:33:27;32.10;50.00
58096;DHT22;43908;53.038;6.666;2022-07-18T15:35:52;32.10;51.50
58096;DHT22;43908;53.038;6.666;2022-07-18T15:38:18;32.20;53.20
58096;DHT22;43908;53.038;6.666;2022-07-18T15:40:44;32.30;53.60
58096;DHT22;43908;53.038;6.666;2022-07-18T15:43:10;32.20;53.90
58096;DHT22;43908;53.038;6.666;2022-07-18T15:45:35;32.20;53.90
58096;DHT22;43908;53.038;6.666;2022-07-18T15:48:01;32.20;51.50
58096;DHT22;43908;53.038;6.666;2022-07-18T15:50:27;32.20;53.10
58096;DHT22;43908;53.038;6.666;2022-07-18T15:52:53;32.30;54.10
58096;DHT22;43908;53.038;6.666;2022-07-18T15:55:18;32.30;52.80
58096;DHT22;43908;53.038;6.666;2022-07-18T15:57:44;32.30;51.80
58096;DHT22;43908;53.038;6.666;2022-07-18T16:00:10;32.40;54.30
58096;DHT22;43908;53.038;6.666;2022-07-18T16:02:36;32.40;54.00
58096;DHT22;43908;53.038;6.666;2022-07-18T16:05:03;32.30;50.00
58096;DHT22;43908;53.038;6.666;2022-07-18T16:07:28;32.30;52.30
58096;DHT22;43908;53.038;6.666;2022-07-18T16:09:54;32.30;54.10
58096;DHT22;43908;53.038;6.666;2022-07-18T16:12:20;32.30;54.80
58096;DHT22;43908;53.038;6.666;2022-07-18T16:14:46;32.20;54.50
58096;DHT22;43908;53.038;6.666;2022-07-18T16:17:11;32.00;55.50
58096;DHT22;43908;53.038;6.666;2022-07-18T16:19:37;31.90;55.60
58096;DHT22;43908;53.038;6.666;2022-07-18T16:22:02;31.70;53.40
58096;DHT22;43908;53.038;6.666;2022-07-18T16:24:29;31.60;51.40
58096;DHT22;43908;53.038;6.666;2022-07-18T16:26:55;31.60;55.20
58096;DHT22;43908;53.038;6.666;2022-07-18T16:29:21;31.70;56.90
58096;DHT22;43908;53.038;6.666;2022-07-18T16:31:47;31.50;51.90
58096;DHT22;43908;53.038;6.666;2022-07-18T16:34:12;31.50;53.50
58096;DHT22;43908;53.038;6.666;2022-07-18T16:36:38;31.40;52.80
58096;DHT22;43908;53.038;6.666;2022-07-18T16:39:03;31.40;54.30
58096;DHT22;43908;53.038;6.666;2022-07-18T16:41:30;31.40;55.10
58096;DHT22;43908;53.038;6.666;2022-07-18T16:43:57;31.30;54.00